Asian Captain — D7AQ — position and weather

sailwx.info

Track history (hours):
 
Tides and Currents Weather Stations Pressure Air Temp Water Temp Dewpoint Dewpoint Depression Visibility Wind Speed Wind Dir Waves Ship Positions

Asian Captain

Last reported at 2018-Jan-19 12:05 UTC. Time now 2018-Jan-21 01:00 UTC.
Position S 32°56' W 071°55'.

Length 229 m; draft 8.5 m.

Type: Cargo ship. MMSI: 440371000.

Date/timePositionNaut miles runAvg speedWind from/ knotsBaromVisibWave heightAir tempDewpointWater temp
2018-Jan-19 12:05S 32°56' W 071°55'216.3
2018-Jan-19 11:59S 32°54' W 071°56'816.4
2018-Jan-19 11:30S 32°47' W 071°57'816.6
2018-Jan-19 11:00S 32°38' W 071°58'  
2018-Jan-10 18:01N 09°11' W 079°52'012.0
2018-Jan-10 18:00N 09°11' W 079°52'5 9.3
2018-Jan-10 17:29N 09°14' W 079°55'2 3.9
2018-Jan-10 17:00N 09°16' W 079°55'0 0.5
2018-Jan-10 16:22N 09°17' W 079°55'0 0.4
2018-Jan-10 15:55N 09°17' W 079°55'0 0.2
2018-Jan-10 15:30N 09°17' W 079°55'1 1.6
2018-Jan-10 15:00N 09°18' W 079°55'1 2.8
2018-Jan-10 14:30N 09°19' W 079°55'3 6.4
2018-Jan-10 14:00N 09°22' W 079°55'4 8.4
2018-Jan-10 13:30N 09°26' W 079°54'713.0
2018-Jan-10 13:00N 09°31' W 079°50'1 2.1
2018-Jan-10 12:30N 09°32' W 079°50'1 2.1
2018-Jan-10 12:00N 09°32' W 079°50'4 7.5
2018-Jan-10 11:30N 09°28' W 079°51'1 2.7
2018-Jan-10 11:00N 09°27' W 079°53'5 9.2
2018-Jan-10 10:30N 09°23' W 079°54'1 2.2
2018-Jan-10 09:59N 09°22' W 079°53'0 0.0
2018-Jan-10 09:29N 09°22' W 079°53'0 0.0
2018-Jan-10 08:59N 09°22' W 079°53'0 0.0
2018-Jan-10 08:29N 09°22' W 079°53'0 0.0
2018-Jan-10 07:58N 09°22' W 079°53'0 0.0
2018-Jan-10 07:28N 09°22' W 079°53'0 0.0
2018-Jan-10 06:58N 09°22' W 079°53'0 0.0
2018-Jan-10 06:28N 09°22' W 079°53'0 0.0
2018-Jan-10 05:58N 09°22' W 079°53'0 0.0
2018-Jan-10 05:28N 09°22' W 079°53'0 0.0
2018-Jan-10 04:58N 09°22' W 079°53'0 0.0
2018-Jan-10 04:28N 09°22' W 079°53'0 0.0
2018-Jan-10 03:58N 09°22' W 079°53'0 0.0
2018-Jan-10 03:28N 09°22' W 079°53'0 0.0
2018-Jan-10 02:58N 09°22' W 079°53'0 0.0
2018-Jan-10 02:28N 09°22' W 079°53'0 0.0
2018-Jan-10 01:58N 09°22' W 079°53'0 0.0
2018-Jan-10 01:28N 09°22' W 079°53'0 0.0
2018-Jan-10 00:58N 09°22' W 079°53'0 0.0
2018-Jan-10 00:28N 09°22' W 079°53'0 0.0
2018-Jan-09 23:58N 09°22' W 079°53'0 0.0
2018-Jan-09 23:28N 09°22' W 079°53'0 0.0
2018-Jan-09 22:58N 09°22' W 079°53'0 0.0
2018-Jan-09 22:28N 09°22' W 079°53'0 0.0
2018-Jan-09 21:58N 09°22' W 079°53'0 0.0
2018-Jan-09 21:28N 09°22' W 079°53'0 0.0
2018-Jan-09 20:58N 09°22' W 079°53'0 0.0
2018-Jan-09 20:28N 09°22' W 079°53'0 0.0
2018-Jan-09 19:58N 09°22' W 079°53'0 0.0
2018-Jan-09 19:28N 09°22' W 079°53'0 0.0
2018-Jan-09 18:58N 09°22' W 079°53'0 0.0
2018-Jan-09 18:28N 09°22' W 079°53'0 0.0
2018-Jan-09 17:58N 09°22' W 079°53'0 0.0
2018-Jan-09 17:28N 09°22' W 079°53'0 0.0
2018-Jan-09 16:58N 09°22' W 079°53'0 0.0
2018-Jan-09 16:28N 09°22' W 079°53'0 0.0
2018-Jan-09 15:58N 09°22' W 079°53'0 0.0
2018-Jan-09 15:28N 09°22' W 079°53'0 0.0
2018-Jan-09 14:58N 09°22' W 079°53'0 0.0
2018-Jan-09 14:28N 09°22' W 079°53'0 0.0
2018-Jan-09 13:58N 09°22' W 079°53'0 0.0
2018-Jan-09 13:28N 09°22' W 079°53'0 0.0
2018-Jan-09 12:58N 09°22' W 079°53'0 0.0
2018-Jan-09 12:28N 09°22' W 079°53'  
Track history (hours):
 
Tides and Currents Weather Stations Pressure Air Temp Water Temp Dewpoint Dewpoint Depression Visibility Wind Speed Wind Dir Waves Ship Positions

Asian Captain

Last reported at 2018-Jan-19 12:05 UTC. Time now 2018-Jan-21 01:00 UTC.
Position S 32°56' W 071°55'.

Length 229 m; draft 8.5 m.

Type: Cargo ship. MMSI: 440371000.

Date/timePositionNaut miles runAvg speedWind from/ knotsBaromVisibWave heightAir tempDewpointWater temp
2018-Jan-19 12:05S 32°56' W 071°55'216.3
2018-Jan-19 11:59S 32°54' W 071°56'816.4
2018-Jan-19 11:30S 32°47' W 071°57'816.6
2018-Jan-19 11:00S 32°38' W 071°58'  
2018-Jan-10 18:01N 09°11' W 079°52'012.0
2018-Jan-10 18:00N 09°11' W 079°52'5 9.3
2018-Jan-10 17:29N 09°14' W 079°55'2 3.9
2018-Jan-10 17:00N 09°16' W 079°55'0 0.5
2018-Jan-10 16:22N 09°17' W 079°55'0 0.4
2018-Jan-10 15:55N 09°17' W 079°55'0 0.2
2018-Jan-10 15:30N 09°17' W 079°55'1 1.6
2018-Jan-10 15:00N 09°18' W 079°55'1 2.8
2018-Jan-10 14:30N 09°19' W 079°55'3 6.4
2018-Jan-10 14:00N 09°22' W 079°55'4 8.4
2018-Jan-10 13:30N 09°26' W 079°54'713.0
2018-Jan-10 13:00N 09°31' W 079°50'1 2.1
2018-Jan-10 12:30N 09°32' W 079°50'1 2.1
2018-Jan-10 12:00N 09°32' W 079°50'4 7.5
2018-Jan-10 11:30N 09°28' W 079°51'1 2.7
2018-Jan-10 11:00N 09°27' W 079°53'5 9.2
2018-Jan-10 10:30N 09°23' W 079°54'1 2.2
2018-Jan-10 09:59N 09°22' W 079°53'0 0.0
2018-Jan-10 09:29N 09°22' W 079°53'0 0.0
2018-Jan-10 08:59N 09°22' W 079°53'0 0.0
2018-Jan-10 08:29N 09°22' W 079°53'0 0.0
2018-Jan-10 07:58N 09°22' W 079°53'0 0.0
2018-Jan-10 07:28N 09°22' W 079°53'0 0.0
2018-Jan-10 06:58N 09°22' W 079°53'0 0.0
2018-Jan-10 06:28N 09°22' W 079°53'0 0.0
2018-Jan-10 05:58N 09°22' W 079°53'0 0.0
2018-Jan-10 05:28N 09°22' W 079°53'0 0.0
2018-Jan-10 04:58N 09°22' W 079°53'0 0.0
2018-Jan-10 04:28N 09°22' W 079°53'0 0.0
2018-Jan-10 03:58N 09°22' W 079°53'0 0.0
2018-Jan-10 03:28N 09°22' W 079°53'0 0.0
2018-Jan-10 02:58N 09°22' W 079°53'0 0.0
2018-Jan-10 02:28N 09°22' W 079°53'0 0.0
2018-Jan-10 01:58N 09°22' W 079°53'0 0.0
2018-Jan-10 01:28N 09°22' W 079°53'0 0.0
2018-Jan-10 00:58N 09°22' W 079°53'0 0.0
2018-Jan-10 00:28N 09°22' W 079°53'0 0.0
2018-Jan-09 23:58N 09°22' W 079°53'0 0.0
2018-Jan-09 23:28N 09°22' W 079°53'0 0.0
2018-Jan-09 22:58N 09°22' W 079°53'0 0.0
2018-Jan-09 22:28N 09°22' W 079°53'0 0.0
2018-Jan-09 21:58N 09°22' W 079°53'0 0.0
2018-Jan-09 21:28N 09°22' W 079°53'0 0.0
2018-Jan-09 20:58N 09°22' W 079°53'0 0.0
2018-Jan-09 20:28N 09°22' W 079°53'0 0.0
2018-Jan-09 19:58N 09°22' W 079°53'0 0.0
2018-Jan-09 19:28N 09°22' W 079°53'0 0.0
2018-Jan-09 18:58N 09°22' W 079°53'0 0.0
2018-Jan-09 18:28N 09°22' W 079°53'0 0.0
2018-Jan-09 17:58N 09°22' W 079°53'0 0.0
2018-Jan-09 17:28N 09°22' W 079°53'0 0.0
2018-Jan-09 16:58N 09°22' W 079°53'0 0.0
2018-Jan-09 16:28N 09°22' W 079°53'0 0.0
2018-Jan-09 15:58N 09°22' W 079°53'0 0.0
2018-Jan-09 15:28N 09°22' W 079°53'0 0.0
2018-Jan-09 14:58N 09°22' W 079°53'0 0.0
2018-Jan-09 14:28N 09°22' W 079°53'0 0.0
2018-Jan-09 13:58N 09°22' W 079°53'0 0.0
2018-Jan-09 13:28N 09°22' W 079°53'0 0.0
2018-Jan-09 12:58N 09°22' W 079°53'0 0.0
2018-Jan-09 12:28N 09°22' W 079°53'  

Dump ship's entire track history